Time;durP1;ratioP1;P1;durP2;ratioP2;P2;SDS_P1;SDS_P2;PMS_P1;PMS_P2;Temp;Humidity;BMP_temperature;BMP_pressure;BME280_temperature;BME280_humidity;BME280_pressure;Samples;Min_cycle;Max_cycle;Signal;HPM_P1;HPM_P2
2022/11/17 00:01:33;;;;;;;7.20;2.27;;;10.40;79.80;;;13.49;50.28;95833.44;5045008;28;20316;-58
2022/11/17 00:04:01;;;;;;;5.17;2.40;;;10.50;79.60;;;13.43;50.27;95828.16;5044980;28;20217;-58
2022/11/17 00:06:29;;;;;;;4.87;2.40;;;10.50;79.10;;;13.36;50.31;95822.88;5044690;28;20041;-59
2022/11/17 00:08:57;;;;;;;4.07;2.30;;;10.50;78.90;;;13.38;50.44;95810.13;5044737;28;20057;-58
2022/11/17 00:11:25;;;;;;;4.73;3.27;;;10.50;78.80;;;13.37;50.50;95803.94;5044817;28;20337;-58
2022/11/17 00:16:40;;;;;;;4.73;3.07;;;10.50;79.10;;;13.42;50.46;95803.28;5044768;28;20045;-58
2022/11/17 00:21:54;;;;;;;4.87;2.73;;;10.40;79.30;;;13.33;50.33;95817.97;5044786;28;20064;-58
2022/11/17 00:24:23;;;;;;;4.23;2.97;;;10.40;78.90;;;13.28;50.40;95823.97;5044162;28;20348;-58
2022/11/17 00:27:03;;;;;;;7.83;3.40;;;10.40;79.30;;;13.26;50.54;95825.22;5044766;28;20045;-59
2022/11/17 00:29:32;;;;;;;4.73;2.80;;;10.30;79.80;;;13.28;50.71;95820.47;5043732;28;20053;-58
2022/11/17 00:34:59;;;;;;;3.85;2.72;;;10.30;80.20;;;13.34;50.45;95816.97;5042104;28;20041;-59
2022/11/17 00:37:29;;;;;;;4.63;2.57;;;10.30;80.30;;;13.36;50.42;95815.69;5042382;28;20071;-58
2022/11/17 00:39:57;;;;;;;5.17;2.30;;;10.30;80.10;;;13.41;50.33;95815.00;5043174;28;20370;-58
2022/11/17 00:42:28;;;;;;;3.83;2.97;;;10.30;80.20;;;13.42;50.59;95815.84;5044408;28;20057;-58
2022/11/17 00:44:56;;;;;;;4.33;2.40;;;10.30;80.20;;;13.43;50.37;95809.44;5043509;28;20057;-58
2022/11/17 00:47:24;;;;;;;5.40;2.60;;;10.20;80.40;;;13.45;50.59;95810.84;5043276;28;20057;-58
2022/11/17 00:49:52;;;;;;;3.33;2.33;;;10.30;80.80;;;13.50;50.38;95802.16;5044060;28;20041;-58
2022/11/17 00:52:20;;;;;;;4.37;2.30;;;10.30;80.70;;;13.51;50.57;95801.09;5043133;28;20029;-57
2022/11/17 00:54:48;;;;;;;3.77;2.53;;;10.40;80.60;;;13.50;50.52;95789.59;5058801;28;20046;-59
2022/11/17 00:57:16;;;;;;;4.03;2.03;;;10.30;81.00;;;13.54;50.47;95784.63;5043106;28;20240;-59
2022/11/17 00:59:44;;;;;;;3.87;2.30;;;10.30;81.10;;;13.58;50.34;95775.13;5042933;28;20049;-58
2022/11/17 01:02:12;;;;;;;8.03;2.53;;;10.40;81.10;;;13.59;50.52;95758.84;5042866;28;20049;-58
2022/11/17 01:04:40;;;;;;;3.83;2.23;;;10.40;81.30;;;13.60;50.79;95759.66;5043414;28;20049;-58
2022/11/17 01:07:09;;;;;;;4.23;2.43;;;10.50;81.60;;;13.63;50.71;95756.56;5042764;28;20060;-58
2022/11/17 01:09:37;;;;;;;6.50;2.83;;;10.50;81.50;;;13.66;50.87;95757.94;5042543;28;20049;-58
2022/11/17 01:12:05;;;;;;;3.90;2.67;;;10.50;81.50;;;13.66;50.63;95753.41;5043708;28;20042;-59
2022/11/17 01:14:34;;;;;;;4.53;2.50;;;10.50;81.80;;;13.69;50.66;95750.28;5042788;28;20347;-58
2022/11/17 01:17:02;;;;;;;4.50;2.77;;;10.50;82.10;;;13.67;50.95;95736.34;5043639;28;20052;-59
2022/11/17 01:19:30;;;;;;;3.37;2.53;;;10.50;82.10;;;13.67;50.99;95738.19;5043543;28;20045;-58
2022/11/17 01:21:58;;;;;;;4.90;3.13;;;10.50;82.00;;;13.66;50.86;95737.38;5040082;28;20061;-58
2022/11/17 01:24:26;;;;;;;4.47;2.60;;;10.50;82.10;;;13.63;50.80;95732.47;5042602;28;20059;-58
2022/11/17 01:26:54;;;;;;;5.70;2.60;;;10.50;82.10;;;13.60;50.93;95735.59;5042225;28;20239;-58
2022/11/17 01:29:22;;;;;;;4.20;3.03;;;10.50;81.80;;;13.59;51.25;95729.44;5043560;28;20063;-58
2022/11/17 01:31:52;;;;;;;4.33;2.70;;;10.50;81.90;;;13.61;51.13;95723.03;5043724;28;20050;-58
2022/11/17 01:34:20;;;;;;;5.03;3.03;;;10.60;82.20;;;13.63;51.18;95719.13;5042843;28;20049;-57
2022/11/17 01:39:35;;;;;;;6.40;3.17;;;10.60;82.10;;;13.61;51.15;95713.19;5043243;28;20046;-58
2022/11/17 01:42:13;;;;;;;4.70;2.77;;;10.50;82.30;;;13.63;51.27;95705.75;5043178;28;20060;-58
2022/11/17 01:45:19;;;;;;;3.73;2.30;;;10.50;82.60;;;13.61;51.30;95705.16;5026008;28;20053;-58
2022/11/17 01:47:58;;;;;;;3.93;2.93;;;10.50;82.80;;;13.62;51.20;95714.00;5042308;28;20075;-59
2022/11/17 01:50:48;;;;;;;3.93;2.77;;;10.50;82.80;;;13.57;51.25;95707.47;5041634;28;20045;-58
2022/11/17 01:53:18;;;;;;;5.30;3.03;;;10.40;83.30;;;13.60;51.43;95690.16;5041848;28;20049;-58
2022/11/17 01:55:58;;;;;;;4.07;2.50;;;10.50;83.80;;;13.64;51.53;95675.28;5041169;28;20049;-57
2022/11/17 01:58:35;;;;;;;8.23;2.60;;;10.50;84.10;;;13.69;51.58;95674.63;5041787;28;20084;-58
2022/11/17 02:01:03;;;;;;;3.60;2.23;;;10.50;84.10;;;13.72;51.62;95652.75;5042007;28;20063;-59
2022/11/17 02:03:33;;;;;;;3.83;2.40;;;10.50;84.30;;;13.73;51.45;95646.38;5041367;28;20053;-59
2022/11/17 02:06:13;;;;;;;3.90;2.17;;;10.50;84.30;;;13.74;51.41;95634.59;5041514;28;20049;-59
2022/11/17 02:08:44;;;;;;;3.87;1.93;;;10.60;84.10;;;13.70;51.54;95636.91;5041732;28;20049;-58
2022/11/17 02:11:17;;;;;;;4.57;2.20;;;10.60;84.50;;;13.68;51.53;95635.53;5041301;28;20037;-58
2022/11/17 02:13:47;;;;;;;4.85;2.60;;;10.60;84.20;;;13.64;51.61;95629.03;5040973;28;20045;-58
2022/11/17 02:16:16;;;;;;;3.73;2.20;;;10.60;83.80;;;13.59;51.70;95624.38;5041056;28;20302;-59
2022/11/17 02:18:45;;;;;;;3.00;2.50;;;10.60;83.60;;;13.54;51.61;95624.22;5041946;28;20352;-59
2022/11/17 02:21:56;;;;;;;3.50;2.20;;;10.60;83.30;;;13.51;51.59;95620.16;5022261;28;20049;-58
2022/11/17 02:24:47;;;;;;;4.37;2.73;;;10.50;83.20;;;13.44;51.35;95614.09;5007929;28;20367;-58
2022/11/17 02:27:36;;;;;;;4.80;2.67;;;10.50;83.10;;;13.36;51.64;95611.75;5037648;28;20064;-59
2022/11/17 02:30:15;;;;;;;2.83;2.53;;;10.40;82.70;;;13.27;52.02;95605.88;5022734;28;20056;-58
2022/11/17 02:33:11;;;;;;;5.03;1.90;;;10.40;83.10;;;13.29;51.96;95594.97;5021094;28;20049;-57
2022/11/17 02:36:40;;;;;;;4.30;2.53;;;10.40;83.30;;;13.32;51.88;95587.34;5020412;28;20046;-57
2022/11/17 02:39:51;;;;;;;3.47;2.53;;;10.30;83.30;;;13.28;51.80;95564.78;5035191;28;20371;-58
2022/11/17 02:45:41;;;;;;;5.47;3.03;;;10.30;83.40;;;13.23;51.89;95567.31;5021103;28;20050;-58
2022/11/17 02:48:30;;;;;;;3.95;2.55;;;10.20;83.50;;;13.20;51.68;95573.09;5022222;28;20348;-58
2022/11/17 02:51:00;;;;;;;4.73;2.73;;;10.20;83.40;;;13.19;52.19;95576.81;5021414;28;20332;-58
2022/11/17 02:53:29;;;;;;;4.67;2.70;;;10.20;83.80;;;13.21;51.89;95553.34;5021365;28;20050;-58
2022/11/17 02:56:00;;;;;;;5.23;2.80;;;10.10;84.00;;;13.22;52.04;95562.97;5020678;28;20366;-57
2022/11/17 02:58:29;;;;;;;4.33;3.10;;;10.10;84.20;;;13.24;51.86;95552.91;5020921;28;20054;-58
2022/11/17 03:01:08;;;;;;;5.23;2.67;;;10.10;84.50;;;13.28;51.80;95571.94;5022031;28;20239;-58
2022/11/17 03:04:03;;;;;;;3.33;2.70;;;10.10;84.70;;;13.25;51.67;95580.44;5021705;28;20386;-57
2022/11/17 03:06:44;;;;;;;4.85;2.75;;;10.00;85.00;;;13.24;51.77;95598.34;5021345;28;20064;-58
2022/11/17 03:09:29;;;;;;;6.67;2.60;;;10.00;85.60;;;13.23;51.99;95590.53;5022469;28;20054;-58
2022/11/17 03:12:54;;;;;;;3.90;2.40;;;10.00;86.00;;;13.23;52.13;95598.56;5021019;28;20060;-59
2022/11/17 03:15:58;;;;;;;3.67;2.08;;;10.00;86.40;;;13.27;51.87;95592.53;5020364;28;20382;-56
2022/11/17 03:18:44;;;;;;;4.00;1.70;;;10.10;86.70;;;13.31;52.05;95576.88;5020888;28;20046;-58
2022/11/17 03:21:35;;;;;;;3.57;2.77;;;10.20;86.50;;;13.28;52.00;95587.97;5020837;28;20050;-58
2022/11/17 03:24:32;;;;;;;2.90;1.87;;;10.20;86.00;;;13.27;52.29;95568.47;5020431;28;20064;-58
2022/11/17 03:27:22;;;;;;;3.40;2.00;;;10.30;86.50;;;13.35;52.73;95554.00;5021005;28;20049;-58
2022/11/17 03:29:57;;;;;;;2.90;2.03;;;10.30;86.50;;;13.40;52.54;95543.44;5005323;28;20054;-58
2022/11/17 03:32:31;;;;;;;3.07;1.80;;;10.30;86.70;;;13.39;52.37;95542.59;5020157;28;20045;-57
2022/11/17 03:35:09;;;;;;;2.70;1.87;;;10.30;86.70;;;13.36;52.60;95544.94;5020107;28;20072;-59
2022/11/17 03:37:50;;;;;;;4.80;2.27;;;10.30;87.20;;;13.36;52.65;95561.78;5020620;28;20046;-57
2022/11/17 03:40:24;;;;;;;2.87;1.90;;;10.30;87.60;;;13.36;52.82;95561.78;5005020;28;20050;-58
2022/11/17 03:42:58;;;;;;;3.87;1.90;;;10.30;87.70;;;13.39;52.58;95552.50;5020146;28;20054;-58
2022/11/17 03:45:36;;;;;;;2.90;1.77;;;10.30;87.60;;;13.39;52.73;95544.47;5021157;28;20054;-58
2022/11/17 03:48:32;;;;;;;4.20;2.10;;;10.40;87.60;;;13.39;52.72;95544.47;5020785;28;20072;-58
2022/11/17 03:51:12;;;;;;;3.90;2.23;;;10.30;87.80;;;13.35;52.99;95536.09;5020700;28;20140;-57
2022/11/17 03:53:40;;;;;;;3.53;2.57;;;10.40;87.70;;;13.38;52.78;95540.19;5020139;28;20056;-58
2022/11/17 03:56:50;;;;;;;4.30;2.20;;;10.30;88.20;;;13.36;52.77;95529.72;5020500;28;20062;-57
2022/11/17 03:59:26;;;;;;;6.50;2.03;;;10.40;88.60;;;13.39;52.99;95526.56;5020551;28;20348;-58
2022/11/17 04:01:55;;;;;;;4.13;2.13;;;10.40;88.60;;;13.38;52.95;95532.16;5022169;28;20340;-59
2022/11/17 04:04:23;;;;;;;4.20;2.10;;;10.40;88.60;;;13.37;53.21;95536.69;5020077;28;20045;-58
2022/11/17 04:06:52;;;;;;;4.00;2.10;;;10.40;88.60;;;13.40;53.33;95532.75;5020673;28;20259;-57
2022/11/17 04:09:20;;;;;;;4.00;2.20;;;10.50;88.90;;;13.42;53.55;95532.53;5021368;28;20046;-59
2022/11/17 04:17:24;;;;;;;2.90;2.10;;;10.40;89.60;;;13.42;53.26;95543.22;5024967;28;20046;-58
2022/11/17 04:19:53;;;;;;;3.10;2.03;;;10.40;89.50;;;13.39;53.80;95539.94;5025293;28;20054;-58
2022/11/17 04:22:21;;;;;;;4.07;2.33;;;10.50;89.60;;;13.39;53.79;95539.94;5024320;28;20368;-56
2022/11/17 04:24:49;;;;;;;5.57;2.30;;;10.50;89.60;;;13.40;53.86;95543.44;5020974;28;20267;-57
2022/11/17 04:30:04;;;;;;;4.88;2.50;;;10.50;90.50;;;13.40;53.80;95540.78;5023826;28;20054;-58
2022/11/17 04:32:32;;;;;;;6.73;2.30;;;10.40;90.80;;;13.41;53.86;95536.22;5026088;28;20057;-58
2022/11/17 04:35:00;;;;;;;4.77;2.60;;;10.40;90.80;;;13.45;53.72;95532.03;5024287;28;20370;-57
2022/11/17 04:37:29;;;;;;;4.30;2.50;;;10.50;91.00;;;13.41;54.12;95536.22;5022424;28;20050;-58
2022/11/17 04:39:57;;;;;;;4.55;2.22;;;10.50;90.90;;;13.41;54.02;95541.56;5024374;28;20045;-58
2022/11/17 04:42:25;;;;;;;3.73;2.63;;;10.50;91.50;;;13.42;54.10;95530.66;5024667;28;20143;-58
2022/11/17 04:44:53;;;;;;;3.53;2.20;;;10.50;92.10;;;13.46;53.99;95534.50;5024217;28;20050;-58
2022/11/17 04:47:21;;;;;;;3.63;2.77;;;10.50;91.90;;;13.48;54.11;95528.94;5023499;28;20057;-59
2022/11/17 04:49:49;;;;;;;3.50;2.13;;;10.50;92.50;;;13.52;53.91;95532.75;5024612;28;20085;-59
2022/11/17 04:52:17;;;;;;;3.67;2.28;;;10.60;92.30;;;13.54;53.96;95538.69;5024202;28;20049;-57
2022/11/17 04:54:45;;;;;;;5.80;3.00;;;10.50;92.50;;;13.54;54.29;95536.81;5023768;28;20045;-59
2022/11/17 04:57:13;;;;;;;3.00;2.20;;;10.50;93.40;;;13.54;53.99;95544.03;5023153;28;20045;-58
2022/11/17 04:59:42;;;;;;;3.45;2.28;;;10.40;94.30;;;13.51;54.05;95545.31;5024464;28;20046;-58
2022/11/17 05:02:10;;;;;;;3.93;2.13;;;10.40;94.80;;;13.53;54.26;95539.72;5023115;28;20056;-58
2022/11/17 05:04:56;;;;;;;4.93;2.43;;;10.40;95.50;;;13.52;54.32;95544.25;5022099;28;20066;-58
2022/11/17 05:07:24;;;;;;;2.67;2.20;;;10.40;95.70;;;13.50;54.44;95548.22;5022799;28;20054;-58
2022/11/17 05:09:53;;;;;;;3.83;2.63;;;10.40;96.30;;;13.50;54.48;95554.38;5022501;28;20221;-58
2022/11/17 05:15:08;;;;;;;4.17;2.57;;;10.40;97.70;;;13.48;54.39;95535.06;5023616;28;20050;-58
2022/11/17 05:17:36;;;;;;;5.73;2.40;;;10.40;98.10;;;13.49;54.15;95535.88;5023720;28;20214;-58
2022/11/17 05:20:05;;;;;;;3.63;2.33;;;10.40;98.30;;;13.47;54.45;95537.97;5023961;28;20045;-58
2022/11/17 05:25:20;;;;;;;8.80;2.80;;;10.30;98.30;;;13.36;54.34;95536.94;5023458;28;20217;-58
2022/11/17 05:27:48;;;;;;;3.27;2.60;;;10.30;98.30;;;13.29;54.93;95539.66;5024278;28;20061;-58
2022/11/17 05:30:16;;;;;;;4.30;2.40;;;10.30;98.30;;;13.25;54.61;95543.03;5022614;28;20056;-57
2022/11/17 05:32:44;;;;;;;5.07;2.50;;;10.30;98.20;;;13.24;54.72;95544.91;5023329;28;20052;-57
2022/11/17 05:35:12;;;;;;;4.00;2.80;;;10.30;99.10;;;13.29;54.86;95553.03;5022146;28;20050;-58
2022/11/17 05:37:40;;;;;;;4.22;2.58;;;10.30;98.00;;;13.26;54.97;95548.16;5022165;28;20060;-59
2022/11/17 05:40:10;;;;;;;3.50;2.90;;;10.40;98.20;;;13.26;55.00;95542.81;5022459;28;20056;-58
2022/11/17 05:42:38;;;;;;;4.47;2.80;;;10.40;98.10;;;13.31;54.96;95548.28;5022259;28;20060;-59
2022/11/17 05:45:07;;;;;;;4.07;2.83;;;10.40;98.30;;;13.33;55.27;95542.72;5022087;28;20045;-58
2022/11/17 05:47:35;;;;;;;5.53;2.77;;;10.40;98.60;;;13.37;54.92;95543.88;5023302;28;20059;-57
2022/11/17 05:50:04;;;;;;;3.80;2.60;;;10.40;98.60;;;13.39;54.86;95531.09;5006089;28;20065;-59
2022/11/17 05:52:32;;;;;;;3.63;2.63;;;10.50;98.30;;;13.36;54.86;95540.41;5023157;28;20041;-58
2022/11/17 05:55:00;;;;;;;3.83;2.33;;;10.50;98.10;;;13.32;54.99;95538.44;5022849;28;20051;-60
2022/11/17 05:57:31;;;;;;;3.57;3.00;;;10.40;98.10;;;13.31;54.97;95542.13;5023135;28;20046;-58
2022/11/17 06:00:03;;;;;;;5.30;2.33;;;10.30;98.60;;;13.31;55.15;95547.47;5005896;28;20348;-57
2022/11/17 06:02:50;;;;;;;3.90;2.47;;;10.30;98.60;;;13.31;54.87;95539.47;5022761;28;20050;-59
2022/11/17 06:05:19;;;;;;;4.93;2.10;;;10.40;98.60;;;13.34;54.96;95539.81;5006029;28;20060;-59
2022/11/17 06:07:47;;;;;;;3.77;2.43;;;10.50;98.40;;;13.36;55.42;95542.28;5022672;28;20055;-59
2022/11/17 06:10:16;;;;;;;4.43;2.27;;;10.50;98.30;;;13.42;54.94;95537.88;5021853;28;20049;-57
2022/11/17 06:12:44;;;;;;;2.53;1.80;;;10.60;98.00;;;13.39;55.29;95541.78;5023127;28;20054;-58
2022/11/17 06:15:12;;;;;;;3.47;2.27;;;10.50;98.10;;;13.38;55.22;95532.16;5022514;28;20052;-58
2022/11/17 06:18:02;;;;;;;6.43;1.97;;;10.60;97.90;;;13.44;55.41;95533.91;5022784;28;20052;-59
2022/11/17 06:20:35;;;;;;;3.00;2.03;;;10.50;98.20;;;13.44;55.41;95527.75;5021846;28;20056;-59
2022/11/17 06:23:06;;;;;;;3.40;2.00;;;10.50;98.30;;;13.42;55.14;95543.22;5021572;28;20348;-59
2022/11/17 06:25:36;;;;;;;2.90;2.27;;;10.50;98.30;;;13.41;55.39;95544.25;5005420;28;20053;-59
2022/11/17 06:28:11;;;;;;;3.00;1.97;;;10.60;98.40;;;13.44;55.49;95544.59;5021555;28;20089;-59
2022/11/17 06:30:41;;;;;;;2.90;1.63;;;10.60;98.50;;;13.49;55.04;95549.25;5021550;28;20057;-58
2022/11/17 06:33:13;;;;;;;3.50;2.03;;;10.60;98.30;;;13.49;55.00;95546.56;5021326;28;20049;-59
2022/11/17 06:35:43;;;;;;;2.60;2.00;;;10.60;98.10;;;13.51;55.29;95557.84;5019773;28;20049;-59
2022/11/17 06:38:11;;;;;;;5.20;1.83;;;10.60;98.00;;;13.56;55.13;95560.66;5021158;28;20045;-58
2022/11/17 06:40:39;;;;;;;3.10;1.60;;;10.60;98.20;;;13.57;55.08;95562.28;5022589;28;20324;-59
2022/11/17 06:43:08;;;;;;;3.73;2.47;;;10.60;98.10;;;13.59;55.26;95573.56;5022391;28;20385;-60
2022/11/17 06:45:40;;;;;;;3.05;1.88;;;10.60;98.30;;;13.61;55.03;95579.50;5020491;28;20046;-59
2022/11/17 06:48:11;;;;;;;4.10;2.43;;;10.60;98.50;;;13.61;55.16;95568.81;5021059;28;20060;-60
2022/11/17 06:50:39;;;;;;;4.97;3.53;;;10.60;98.80;;;13.64;55.03;95559.50;5021300;28;20235;-60
2022/11/17 06:53:10;;;;;;;2.90;1.60;;;10.60;99.00;;;13.70;54.83;95556.72;5021196;28;20046;-60
2022/11/17 06:55:38;;;;;;;2.37;1.77;;;10.60;98.80;;;13.70;54.90;95543.34;5020688;28;20046;-60
2022/11/17 06:58:11;;;;;;;2.40;1.60;;;10.70;98.50;;;13.64;55.21;95532.75;5037370;28;20380;-59
2022/11/17 07:00:39;;;;;;;2.72;1.58;;;10.70;98.40;;;13.65;55.02;95534.38;5020984;28;20052;-59
2022/11/17 07:03:09;;;;;;;5.10;1.90;;;10.70;98.00;;;13.63;55.27;95549.84;5037406;28;20053;-59
2022/11/17 07:05:38;;;;;;;2.70;1.53;;;10.80;97.90;;;13.61;55.27;95557.28;5020361;28;20065;-59
2022/11/17 07:08:08;;;;;;;2.13;1.60;;;10.70;98.00;;;13.58;55.10;95559.38;5020999;28;20058;-60
2022/11/17 07:10:36;;;;;;;5.17;1.90;;;10.70;98.00;;;13.55;55.42;95557.19;5004550;28;20056;-60
2022/11/17 07:13:04;;;;;;;2.13;1.90;;;10.60;98.50;;;13.55;55.21;95549.16;5020815;28;20042;-60
2022/11/17 07:15:33;;;;;;;3.77;2.20;;;10.60;98.60;;;13.60;55.18;95543.09;5021120;28;20048;-59
2022/11/17 07:18:01;;;;;;;2.67;1.93;;;10.60;98.60;;;13.63;55.25;95541.81;5021009;28;20374;-59
2022/11/17 07:20:29;;;;;;;5.63;1.83;;;10.60;98.80;;;13.64;55.29;95551.47;5021923;28;20225;-58
2022/11/17 07:22:58;;;;;;;3.13;1.90;;;10.70;98.70;;;13.64;55.21;95557.63;5022083;28;20050;-59
2022/11/17 07:25:27;;;;;;;5.03;2.07;;;10.80;98.40;;;13.65;55.43;95550.41;5017026;28;20058;-60
2022/11/17 07:27:59;;;;;;;3.60;1.65;;;10.80;98.40;;;13.69;55.50;95551.63;5020761;28;20045;-60
2022/11/17 07:30:27;;;;;;;1.98;1.63;;;10.80;98.50;;;13.72;55.25;95561.81;5022025;28;20064;-59
2022/11/17 07:32:59;;;;;;;2.65;1.50;;;10.80;98.10;;;13.73;55.24;95563.47;5036882;28;20046;-56
2022/11/17 07:35:27;;;;;;;1.50;1.40;;;10.90;98.10;;;13.78;55.49;95569.75;5020393;28;20113;-59
2022/11/17 07:38:00;;;;;;;1.83;1.45;;;10.90;98.00;;;13.81;54.98;95559.63;5020555;28;20056;-59
2022/11/17 07:40:29;;;;;;;3.75;1.30;;;10.90;97.70;;;13.79;55.28;95554.50;5020799;28;20049;-60
2022/11/17 07:42:57;;;;;;;2.33;1.60;;;10.90;97.20;;;13.81;55.10;95570.34;5020597;28;20268;-59
2022/11/17 07:45:27;;;;;;;3.15;2.28;;;10.90;97.20;;;13.88;55.30;95573.69;5021235;28;20044;-59
2022/11/17 07:48:01;;;;;;;2.27;1.57;;;11.00;97.30;;;13.95;54.97;95564.50;5023135;28;20060;-59
2022/11/17 07:50:30;;;;;;;1.90;1.33;;;11.00;97.30;;;13.98;55.14;95560.56;5007824;28;20054;-59
2022/11/17 07:52:58;;;;;;;2.67;1.37;;;11.10;97.20;;;14.01;55.06;95545.91;5025252;28;20301;-60
2022/11/17 07:55:26;;;;;;;2.07;1.33;;;11.10;97.50;;;14.05;55.03;95553.22;5023761;28;20046;-59
2022/11/17 07:57:59;;;;;;;3.67;1.33;;;11.10;97.00;;;14.05;54.98;95541.69;5025205;28;20045;-60
2022/11/17 08:00:30;;;;;;;4.47;1.27;;;11.10;97.00;;;14.09;54.85;95549.03;5025463;28;20050;-60
2022/11/17 08:03:03;;;;;;;2.80;1.70;;;11.10;97.50;;;14.10;55.09;95552.53;5024080;28;20053;-59
2022/11/17 08:05:34;;;;;;;2.73;1.50;;;11.10;97.00;;;14.09;54.93;95558.91;5025691;28;20060;-60
2022/11/17 08:08:12;;;;;;;3.35;1.42;;;11.10;96.60;;;14.06;54.81;95573.59;5024266;28;20442;-60
2022/11/17 08:10:41;;;;;;;3.47;1.50;;;11.20;96.50;;;14.05;54.98;95566.59;5025137;28;20064;-60
2022/11/17 08:13:10;;;;;;;4.33;1.70;;;11.20;96.70;;;14.07;54.87;95572.53;5023754;28;20049;-60
2022/11/17 08:15:38;;;;;;;5.90;2.00;;;11.20;96.80;;;14.08;54.94;95563.47;5024408;28;20046;-59
2022/11/17 08:18:09;;;;;;;2.45;1.20;;;11.20;96.60;;;14.10;54.77;95572.06;5025071;28;20046;-59
2022/11/17 08:20:37;;;;;;;2.23;1.63;;;11.20;96.80;;;14.09;54.88;95562.41;5024929;28;20050;-58
2022/11/17 08:23:05;;;;;;;3.80;1.60;;;11.10;96.70;;;14.11;54.78;95554.13;5025018;28;20049;-58
2022/11/17 08:25:34;;;;;;;5.07;2.05;;;11.20;96.80;;;14.10;54.67;95542.63;5023194;28;20239;-58
2022/11/17 08:28:02;;;;;;;2.57;1.87;;;11.10;96.60;;;14.10;54.78;95557.88;5024800;28;20042;-59
2022/11/17 08:30:33;;;;;;;2.13;1.43;;;11.10;96.70;;;14.12;54.67;95555.78;5023647;28;20064;-59
2022/11/17 08:33:02;;;;;;;1.60;1.30;;;11.10;96.90;;;14.11;54.79;95554.97;5023526;28;20038;-57
2022/11/17 08:35:32;;;;;;;2.22;1.25;;;11.10;96.30;;;14.09;54.76;95551.69;5022797;28;20264;-58
2022/11/17 08:38:04;;;;;;;2.22;1.10;;;11.10;96.50;;;14.09;54.86;95554.38;5023692;28;20335;-59
2022/11/17 08:40:33;;;;;;;2.90;1.52;;;11.10;96.40;;;14.07;54.64;95558.34;5023380;28;20060;-59
2022/11/17 08:43:01;;;;;;;2.30;1.50;;;11.10;96.20;;;14.07;54.98;95555.66;5024557;28;20046;-59
2022/11/17 08:45:29;;;;;;;3.20;1.77;;;11.10;96.50;;;14.09;54.75;95558.91;5023166;28;20046;-58
2022/11/17 08:47:57;;;;;;;6.40;2.20;;;11.10;96.70;;;14.09;54.95;95556.25;5024363;28;20243;-59
2022/11/17 08:50:26;;;;;;;2.07;1.20;;;11.10;96.50;;;14.12;54.77;95553.91;5023622;28;20053;-59
2022/11/17 08:52:54;;;;;;;2.80;1.60;;;11.10;96.20;;;14.12;54.81;95566.50;5024175;28;20046;-59
2022/11/17 08:55:22;;;;;;;2.70;1.67;;;11.20;96.10;;;14.10;54.70;95569.38;5023934;28;20052;-58
2022/11/17 08:57:50;;;;;;;2.30;1.83;;;11.20;96.00;;;14.10;54.52;95563.22;5024876;28;20375;-58
2022/11/17 09:00:20;;;;;;;3.88;1.52;;;11.20;95.50;;;14.10;54.67;95571.25;5023066;28;20046;-59
2022/11/17 09:02:48;;;;;;;3.25;1.25;;;11.20;95.40;;;14.11;54.53;95584.41;5023982;28;20349;-59
2022/11/17 09:05:17;;;;;;;2.47;1.00;;;11.20;94.50;;;14.08;54.57;95582.19;5024182;28;20054;-59
2022/11/17 09:07:45;;;;;;;2.63;1.42;;;11.30;94.10;;;14.09;54.52;95583.00;5022749;28;20042;-59
2022/11/17 09:10:13;;;;;;;2.88;1.48;;;11.30;93.60;;;14.06;54.63;95589.63;5024165;28;20344;-58
2022/11/17 09:12:41;;;;;;;2.65;1.60;;;11.30;93.50;;;14.11;54.69;95595.13;5023779;28;20239;-59
2022/11/17 09:15:10;;;;;;;1.48;0.90;;;11.40;93.10;;;14.20;54.30;95592.88;5023993;28;20049;-59
2022/11/17 09:17:39;;;;;;;2.40;1.30;;;11.50;92.90;;;14.27;54.17;95601.63;5007096;28;20240;-59
2022/11/17 09:20:07;;;;;;;2.20;1.10;;;11.50;92.20;;;14.33;53.94;95595.31;5006615;28;20046;-59
2022/11/17 09:22:35;;;;;;;1.30;0.93;;;11.60;91.20;;;14.43;54.02;95594.72;5022771;28;20041;-58
2022/11/17 09:25:04;;;;;;;1.17;1.05;;;11.70;91.10;;;14.51;53.70;95602.38;5023322;28;20053;-59
2022/11/17 09:27:40;;;;;;;2.35;1.10;;;11.70;90.50;;;14.54;53.70;95607.28;5022869;28;20370;-59
2022/11/17 09:30:08;;;;;;;1.10;0.77;;;11.80;89.50;;;14.61;53.42;95599.13;5023597;28;20060;-58
2022/11/17 09:32:37;;;;;;;2.70;1.23;;;11.80;88.80;;;14.66;53.07;95604.59;5022845;28;20060;-58
2022/11/17 09:35:08;;;;;;;2.30;1.10;;;11.90;88.60;;;14.70;53.23;95608.44;5023312;28;20054;-59
2022/11/17 09:37:36;;;;;;;2.30;0.85;;;11.90;87.20;;;14.74;52.91;95609.59;5021920;28;20046;-59
2022/11/17 09:40:05;;;;;;;0.87;0.87;;;12.00;87.80;;;14.77;52.79;95608.28;5023426;28;20311;-59
2022/11/17 09:42:38;;;;;;;2.83;1.00;;;12.00;86.60;;;14.78;52.62;95628.69;5023533;28;20042;-59
2022/11/17 09:45:26;;;;;;;;;;;12.00;86.70;;;14.83;52.57;95636.81;5022256;28;20046;-58
2022/11/17 09:48:38;;;;;;;2.47;0.90;;;12.00;85.30;;;14.80;52.34;95637.28;5050060;28;19917;-59
2022/11/17 09:51:15;;;;;;;2.30;0.85;;;12.00;84.80;;;14.83;52.28;95633.31;5020745;28;20064;-59
2022/11/17 09:54:10;;;;;;;1.95;0.82;;;12.00;85.90;;;14.79;52.16;95635.66;5022562;28;20054;-59
2022/11/17 09:56:40;;;;;;;3.50;1.13;;;12.00;85.30;;;14.89;52.36;95635.06;5013008;28;20044;-60
2022/11/17 09:59:12;;;;;;;3.65;1.00;;;12.10;85.60;;;14.93;51.86;95622.81;5048370;28;20056;-59
2022/11/17 10:01:40;;;;;;;1.98;1.30;;;12.10;84.30;;;14.99;51.74;95624.53;5016838;28;20060;-59
2022/11/17 10:04:15;;;;;;;3.67;1.45;;;12.20;84.10;;;15.00;51.73;95638.75;5018168;28;20056;-60
2022/11/17 10:06:50;;;;;;;5.72;1.40;;;12.20;83.10;;;15.04;51.63;95642.56;5017334;28;20049;-57
2022/11/17 10:09:38;;;;;;;3.70;1.42;;;12.20;84.30;;;15.03;51.32;95631.03;5017597;28;20048;-59
2022/11/17 10:12:12;;;;;;;2.30;1.48;;;12.20;83.30;;;14.98;51.10;95636.28;5000440;28;20306;-59
2022/11/17 10:14:41;;;;;;;5.93;1.30;;;12.20;82.50;;;15.04;51.17;95632.66;5018069;28;20056;-59
2022/11/17 10:17:11;;;;;;;6.13;1.83;;;12.30;82.70;;;15.12;51.30;95634.16;5017509;28;20041;-58
2022/11/17 10:19:42;;;;;;;3.90;1.30;;;12.30;82.40;;;15.22;50.76;95639.72;5028460;28;20060;-58
2022/11/17 10:22:33;;;;;;;2.17;1.00;;;12.40;81.90;;;15.30;50.95;95633.16;5018093;28;20339;-59
2022/11/17 10:25:01;;;;;;;6.28;1.70;;;12.50;80.90;;;15.43;50.38;95640.91;5018247;28;20235;-59
2022/11/17 10:27:32;;;;;;;4.15;1.23;;;12.60;80.50;;;15.46;50.11;95643.09;5022099;28;20056;-59
2022/11/17 10:30:23;;;;;;;3.08;1.30;;;12.60;80.40;;;15.34;49.84;95645.03;5010920;28;20050;-59
2022/11/17 10:32:58;;;;;;;2.97;0.80;;;12.50;78.00;;;15.29;49.71;95639.56;5017186;28;20057;-58
2022/11/17 10:35:32;;;;;;;3.83;1.05;;;12.40;78.90;;;15.30;49.87;95638.53;5017375;28;20049;-59
2022/11/17 10:38:32;;;;;;;2.78;0.90;;;12.40;79.50;;;15.23;49.95;95644.00;4999522;28;20151;-59
2022/11/17 10:41:02;;;;;;;2.78;1.02;;;12.40;79.50;;;15.21;49.55;95640.75;5019010;28;20060;-59
2022/11/17 10:43:34;;;;;;;3.53;1.20;;;12.40;79.00;;;15.25;49.80;95643.78;5021211;28;20055;-58
2022/11/17 10:46:15;;;;;;;2.67;1.00;;;12.40;78.40;;;15.30;49.69;95644.69;5021445;28;20050;-59
2022/11/17 10:49:03;;;;;;;5.72;2.30;;;12.50;77.80;;;15.39;49.84;95644.31;5020823;28;20050;-59
2022/11/17 10:51:34;;;;;;;5.68;1.25;;;12.60;77.60;;;15.51;49.44;95650.44;5021470;28;20049;-59
2022/11/17 10:54:14;;;;;;;3.00;1.23;;;12.70;77.70;;;15.53;49.40;95641.09;5020664;28;20053;-58
2022/11/17 10:56:50;;;;;;;4.28;1.60;;;12.80;76.30;;;15.51;48.94;95645.88;5023139;28;20050;-59
2022/11/17 10:59:29;;;;;;;4.50;1.00;;;12.80;76.00;;;15.52;48.96;95639.44;5022167;28;20236;-58
2022/11/17 11:02:33;;;;;;;2.00;0.95;;;12.80;75.60;;;15.33;48.07;95636.19;5022270;28;20053;-59
2022/11/17 11:05:08;;;;;;;2.38;1.00;;;12.70;72.90;;;15.28;48.28;95641.44;5021626;28;20049;-58
2022/11/17 11:07:37;;;;;;;6.88;1.95;;;12.70;73.90;;;15.33;48.89;95630.00;5022004;28;20103;-59
2022/11/17 11:10:33;;;;;;;3.42;1.17;;;12.70;76.50;;;15.10;49.32;95626.38;5021230;28;20053;-59
2022/11/17 11:13:24;;;;;;;2.55;0.90;;;12.60;75.50;;;15.35;49.10;95635.91;5004847;28;20050;-59
2022/11/17 11:15:53;;;;;;;5.18;1.50;;;12.70;75.70;;;15.33;48.63;95628.16;5021806;28;20046;-59